createdAt,value
2018-06-13T00:00:41.595Z,16.55
2018-06-13T00:03:10.761Z,16.74
2018-06-13T00:05:39.994Z,16.48
2018-06-13T00:08:09.481Z,16.43
2018-06-13T00:10:38.620Z,16.45
2018-06-13T00:13:07.766Z,16.42
2018-06-13T00:15:36.901Z,16.52
2018-06-13T00:18:06.341Z,16.60
2018-06-13T00:20:35.461Z,16.67
2018-06-13T00:23:04.601Z,16.56
2018-06-13T00:25:33.734Z,16.56
2018-06-13T00:28:02.853Z,16.43
2018-06-13T00:30:31.993Z,16.45
2018-06-13T00:33:01.113Z,16.51
2018-06-13T00:35:30.217Z,16.42
2018-06-13T00:37:59.334Z,16.39
2018-06-13T00:40:28.437Z,16.30
2018-06-13T00:42:58.882Z,16.41
2018-06-13T00:45:28.018Z,16.49
2018-06-13T00:47:57.117Z,16.52
2018-06-13T00:50:26.254Z,16.44
2018-06-13T00:52:55.366Z,16.52
2018-06-13T00:55:24.569Z,16.50
2018-06-13T00:57:53.686Z,16.48
2018-06-13T01:00:22.870Z,16.63
2018-06-13T01:02:52.006Z,16.39
2018-06-13T01:05:21.220Z,16.31
2018-06-13T01:07:50.294Z,16.24
2018-06-13T01:10:19.425Z,16.32
2018-06-13T01:12:48.562Z,16.35
2018-06-13T01:15:17.701Z,16.42
2018-06-13T01:17:46.828Z,16.45
2018-06-13T01:20:16.333Z,16.50
2018-06-13T01:22:45.432Z,16.49
2018-06-13T01:25:14.542Z,16.45
2018-06-13T01:27:43.653Z,16.22
2018-06-13T01:30:12.780Z,16.26
2018-06-13T01:32:41.905Z,16.26
2018-06-13T01:35:11.448Z,16.06
2018-06-13T01:37:40.521Z,16.16
2018-06-13T01:40:09.637Z,15.95
2018-06-13T01:42:38.760Z,15.84
2018-06-13T01:45:08.891Z,15.78
2018-06-13T01:47:38.014Z,15.75
2018-06-13T01:50:07.150Z,15.76
2018-06-13T01:52:36.269Z,15.83
2018-06-13T01:55:05.398Z,15.83
2018-06-13T01:57:34.537Z,15.67
2018-06-13T02:00:03.692Z,15.68
2018-06-13T02:02:32.782Z,15.51
2018-06-13T02:05:01.914Z,15.51
2018-06-13T02:07:31.023Z,15.68
2018-06-13T02:10:00.213Z,15.57
2018-06-13T02:12:29.369Z,15.56
2018-06-13T02:14:58.483Z,15.62
2018-06-13T02:17:27.609Z,15.73
2018-06-13T02:19:56.706Z,15.56
2018-06-13T02:22:27.425Z,15.49
2018-06-13T02:24:56.538Z,15.32
2018-06-13T02:27:25.694Z,15.24
2018-06-13T02:29:54.766Z,15.27
2018-06-13T02:32:23.880Z,15.16
2018-06-13T02:34:52.986Z,15.28
2018-06-13T02:37:22.093Z,15.36
2018-06-13T02:39:51.258Z,15.33
2018-06-13T02:42:20.394Z,15.31
2018-06-13T02:44:49.505Z,15.26
2018-06-13T02:47:19.057Z,15.30
2018-06-13T02:49:48.645Z,15.25
2018-06-13T02:52:17.760Z,15.46
2018-06-13T02:54:46.883Z,15.69
2018-06-13T02:57:15.998Z,15.80
2018-06-13T02:59:45.109Z,15.79
2018-06-13T03:02:14.254Z,15.41
2018-06-13T03:04:43.349Z,15.26
2018-06-13T03:07:12.477Z,15.24
2018-06-13T03:09:41.588Z,15.20
2018-06-13T03:12:10.719Z,15.24
2018-06-13T03:14:39.805Z,15.31
2018-06-13T03:17:08.948Z,15.38
2018-06-13T03:19:38.042Z,15.31
2018-06-13T03:22:07.161Z,15.13
2018-06-13T03:24:36.270Z,15.39
2018-06-13T03:27:05.645Z,15.55
2018-06-13T03:29:34.997Z,15.36
2018-06-13T03:32:04.108Z,15.41
2018-06-13T03:34:33.249Z,15.45
2018-06-13T03:37:02.725Z,15.37
2018-06-13T03:39:31.867Z,15.40
2018-06-13T03:42:00.969Z,15.36
2018-06-13T03:44:30.121Z,15.35
2018-06-13T03:46:59.246Z,15.33
2018-06-13T03:49:34.206Z,15.46
2018-06-13T03:52:03.330Z,15.24
2018-06-13T03:54:32.490Z,15.11
2018-06-13T03:57:01.651Z,15.06
2018-06-13T03:59:30.781Z,15.08
2018-06-13T04:01:59.902Z,15.04
2018-06-13T04:04:29.019Z,14.97
2018-06-13T04:06:58.131Z,15.11
2018-06-13T04:09:27.234Z,15.30
2018-06-13T04:11:56.340Z,15.26
2018-06-13T04:14:25.453Z,15.10
2018-06-13T04:16:54.562Z,15.10
2018-06-13T04:19:23.653Z,14.84
2018-06-13T04:21:52.765Z,14.97
2018-06-13T04:24:21.885Z,14.98
2018-06-13T04:26:50.997Z,14.94
2018-06-13T04:29:20.103Z,14.97
2018-06-13T04:31:49.241Z,14.89
2018-06-13T04:34:18.337Z,14.94
2018-06-13T04:36:47.483Z,15.09
2018-06-13T04:39:16.573Z,15.11
2018-06-13T04:41:45.685Z,14.96
2018-06-13T04:44:14.789Z,15.11
2018-06-13T04:46:43.918Z,15.13
2018-06-13T04:49:13.054Z,14.97
2018-06-13T04:51:42.227Z,15.20
2018-06-13T04:54:11.343Z,15.31
2018-06-13T04:56:40.530Z,15.21
2018-06-13T04:59:12.824Z,15.19
2018-06-13T05:01:41.949Z,15.41
2018-06-13T05:04:11.078Z,15.24
2018-06-13T05:06:40.203Z,15.22
2018-06-13T05:09:11.470Z,15.35
2018-06-13T05:11:40.592Z,15.25
2018-06-13T05:14:09.706Z,15.32
2018-06-13T05:16:38.837Z,15.29
2018-06-13T05:19:07.968Z,15.48
2018-06-13T05:21:37.117Z,15.47
2018-06-13T05:24:06.355Z,15.49
2018-06-13T05:26:35.518Z,15.60
2018-06-13T05:29:04.674Z,15.49
2018-06-13T05:31:33.837Z,15.71
2018-06-13T05:34:08.535Z,15.34
2018-06-13T05:36:37.730Z,15.32
2018-06-13T05:39:08.045Z,15.46
2018-06-13T05:41:38.559Z,15.46
2018-06-13T05:44:07.653Z,15.48
2018-06-13T05:46:36.757Z,15.63
2018-06-13T05:49:05.846Z,15.49
2018-06-13T05:51:34.933Z,15.44
2018-06-13T05:54:04.065Z,15.41
2018-06-13T05:56:33.253Z,15.46
2018-06-13T05:59:02.364Z,15.48
2018-06-13T06:01:31.645Z,15.65
2018-06-13T06:04:00.650Z,15.62
2018-06-13T06:06:29.889Z,15.39
2018-06-13T06:08:59.098Z,15.42
2018-06-13T06:11:28.248Z,15.47
2018-06-13T06:13:57.471Z,15.74
2018-06-13T06:16:26.589Z,15.80
2018-06-13T06:18:55.805Z,16.03
2018-06-13T06:21:24.905Z,15.91
2018-06-13T06:23:54.054Z,15.84
2018-06-13T06:26:23.169Z,15.69
2018-06-13T06:28:52.262Z,15.83
2018-06-13T06:31:21.361Z,15.80
2018-06-13T06:33:50.448Z,15.74
2018-06-13T06:36:19.538Z,15.88
2018-06-13T06:38:48.645Z,15.96
2018-06-13T06:41:17.741Z,15.94
2018-06-13T06:43:46.846Z,16.06
2018-06-13T06:46:15.929Z,15.96
2018-06-13T06:48:45.038Z,15.88
2018-06-13T06:51:14.125Z,16.02
2018-06-13T06:53:43.225Z,16.08
2018-06-13T06:56:12.321Z,15.95
2018-06-13T06:58:41.431Z,16.01
2018-06-13T07:01:10.500Z,16.15
2018-06-13T07:03:39.610Z,16.09
2018-06-13T07:06:08.735Z,16.34
2018-06-13T07:08:37.854Z,16.37
2018-06-13T07:11:06.982Z,16.27
2018-06-13T07:13:36.109Z,16.34
2018-06-13T07:16:05.209Z,16.17
2018-06-13T07:18:34.285Z,16.30
2018-06-13T07:21:03.385Z,16.34
2018-06-13T07:23:32.585Z,16.29
2018-06-13T07:26:01.686Z,16.60
2018-06-13T07:28:30.849Z,16.73
2018-06-13T07:30:59.934Z,16.67
2018-06-13T07:33:29.029Z,16.78
2018-06-13T07:35:58.138Z,16.74
2018-06-13T07:38:27.225Z,16.53
2018-06-13T07:40:56.385Z,16.53
2018-06-13T07:43:25.469Z,16.85
2018-06-13T07:45:54.615Z,16.85
2018-06-13T07:48:23.701Z,17.15
2018-06-13T07:50:53.057Z,17.03
2018-06-13T07:53:22.149Z,17.09
2018-06-13T07:55:51.242Z,16.98
2018-06-13T07:58:20.403Z,17.11
2018-06-13T08:00:49.494Z,17.01
2018-06-13T08:03:18.609Z,16.99
2018-06-13T08:05:47.795Z,17.21
2018-06-13T08:08:16.961Z,17.08
2018-06-13T08:10:45.985Z,16.84
2018-06-13T08:13:15.109Z,16.89
2018-06-13T08:15:44.209Z,16.92
2018-06-13T08:18:13.345Z,16.73
2018-06-13T08:20:42.446Z,16.75
2018-06-13T08:23:11.517Z,16.86
2018-06-13T08:25:40.625Z,16.93
2018-06-13T08:28:09.721Z,17.13
2018-06-13T08:30:38.849Z,16.99
2018-06-13T08:33:07.931Z,16.93
2018-06-13T08:35:37.057Z,16.81
2018-06-13T08:38:06.146Z,16.69
2018-06-13T08:40:35.246Z,16.82
2018-06-13T08:43:04.621Z,16.74
2018-06-13T08:45:33.715Z,16.58
2018-06-13T08:48:02.789Z,16.78
2018-06-13T08:50:31.889Z,16.80
2018-06-13T08:53:01.001Z,16.61
2018-06-13T08:55:30.106Z,16.62
2018-06-13T08:57:59.203Z,16.59
2018-06-13T09:00:28.331Z,16.62
2018-06-13T09:02:58.537Z,16.72
2018-06-13T09:05:27.661Z,16.78
2018-06-13T09:07:57.090Z,16.71
2018-06-13T09:10:26.430Z,16.84
2018-06-13T09:12:55.510Z,17.11
2018-06-13T09:15:24.609Z,16.99
2018-06-13T09:17:53.709Z,16.88
2018-06-13T09:20:22.865Z,16.94
2018-06-13T09:22:52.286Z,16.84
2018-06-13T09:25:21.377Z,16.79
2018-06-13T09:27:50.557Z,16.68
2018-06-13T09:30:19.822Z,16.61
2018-06-13T09:32:48.990Z,16.74
2018-06-13T09:35:18.117Z,16.51
2018-06-13T09:37:47.201Z,16.45
2018-06-13T09:40:16.310Z,16.42
2018-06-13T09:42:45.458Z,16.74
2018-06-13T09:45:14.678Z,16.59
2018-06-13T09:47:43.794Z,16.61
2018-06-13T09:50:12.906Z,16.65
2018-06-13T09:52:42.005Z,16.66
2018-06-13T09:55:11.117Z,16.55
2018-06-13T09:57:40.256Z,16.42
2018-06-13T10:00:14.514Z,16.50
2018-06-13T10:02:43.619Z,16.50
2018-06-13T10:05:12.797Z,16.64
2018-06-13T10:07:41.912Z,16.69
2018-06-13T10:10:11.086Z,16.72
2018-06-13T10:12:40.184Z,16.70
2018-06-13T10:15:09.277Z,16.74
2018-06-13T10:17:38.466Z,16.89
2018-06-13T10:20:07.637Z,16.92
2018-06-13T10:22:36.721Z,16.77
2018-06-13T10:25:05.850Z,16.67
2018-06-13T10:27:38.815Z,16.72
2018-06-13T10:30:07.979Z,16.95
2018-06-13T10:32:37.134Z,17.11
2018-06-13T10:35:06.297Z,17.09
2018-06-13T10:37:35.399Z,17.01
2018-06-13T10:40:04.535Z,17.24
2018-06-13T10:42:33.689Z,17.16
2018-06-13T10:45:02.794Z,17.20
2018-06-13T10:47:31.925Z,17.08
2018-06-13T10:50:01.020Z,17.19
2018-06-13T10:52:30.133Z,16.78
2018-06-13T10:54:59.361Z,17.06
2018-06-13T10:57:28.497Z,16.91
2018-06-13T10:59:57.609Z,16.79
2018-06-13T11:02:26.721Z,16.83
2018-06-13T11:04:55.998Z,16.74
2018-06-13T11:07:25.174Z,16.92
2018-06-13T11:09:54.261Z,17.02
2018-06-13T11:12:23.437Z,17.04
2018-06-13T11:14:52.517Z,17.23
2018-06-13T11:17:21.738Z,17.32
2018-06-13T11:19:51.027Z,17.10
2018-06-13T11:22:20.167Z,17.30
2018-06-13T11:24:49.405Z,17.35
2018-06-13T11:27:18.581Z,17.37
2018-06-13T11:29:51.098Z,17.22
2018-06-13T11:32:20.277Z,17.02
2018-06-13T11:34:53.505Z,17.28
2018-06-13T11:37:22.590Z,17.31
2018-06-13T11:39:51.693Z,17.37
2018-06-13T11:42:20.925Z,17.37
2018-06-13T11:44:50.017Z,17.52
2018-06-13T11:47:19.173Z,17.77
2018-06-13T11:49:48.266Z,17.90
2018-06-13T11:52:17.530Z,17.91
2018-06-13T11:54:46.982Z,17.79
2018-06-13T11:57:16.045Z,17.54
2018-06-13T11:59:45.137Z,17.69
2018-06-13T12:02:14.242Z,17.76
2018-06-13T12:04:43.333Z,17.82
2018-06-13T12:07:12.425Z,17.82
2018-06-13T12:09:41.501Z,17.62
2018-06-13T12:12:10.600Z,17.51
2018-06-13T12:14:39.713Z,17.54
2018-06-13T12:17:08.817Z,17.47
2018-06-13T12:19:37.903Z,17.77
2018-06-13T12:22:06.989Z,17.70
2018-06-13T12:24:36.093Z,17.64
2018-06-13T12:27:05.285Z,17.56
2018-06-13T12:29:34.381Z,17.61
2018-06-13T12:32:03.500Z,17.49
2018-06-13T12:34:32.698Z,17.72
2018-06-13T12:37:01.778Z,17.72
2018-06-13T12:39:30.885Z,17.65
2018-06-13T12:41:59.973Z,17.41
2018-06-13T12:44:29.113Z,17.27
2018-06-13T12:46:58.205Z,17.16
2018-06-13T12:49:27.290Z,17.23
2018-06-13T12:51:56.397Z,17.18
2018-06-13T12:54:25.529Z,17.08
2018-06-13T12:56:54.696Z,17.12
2018-06-13T12:59:23.760Z,17.03
2018-06-13T13:01:52.857Z,16.95
2018-06-13T13:04:21.934Z,16.80
2018-06-13T13:06:51.017Z,16.99
2018-06-13T13:09:20.093Z,16.84
2018-06-13T13:11:49.183Z,16.92
2018-06-13T13:14:18.273Z,16.85
2018-06-13T13:16:48.927Z,16.88
2018-06-13T13:19:18.441Z,17.04
2018-06-13T13:21:47.525Z,16.96
2018-06-13T13:24:16.611Z,16.91
2018-06-13T13:26:45.729Z,17.03
2018-06-13T13:29:14.909Z,17.04
2018-06-13T13:31:44.018Z,16.97
2018-06-13T13:34:13.109Z,17.13
2018-06-13T13:36:42.190Z,17.16
2018-06-13T13:39:11.910Z,17.22
2018-06-13T13:41:41.328Z,17.30
2018-06-13T13:44:10.483Z,17.38
2018-06-13T13:46:39.553Z,17.50
2018-06-13T13:49:08.697Z,17.46
2018-06-13T13:51:37.880Z,17.59
2018-06-13T13:54:07.270Z,17.65
2018-06-13T13:56:36.429Z,17.58
2018-06-13T13:59:05.697Z,17.51
2018-06-13T14:01:34.822Z,17.70
2018-06-13T14:04:03.889Z,17.73
2018-06-13T14:06:33.073Z,17.82
2018-06-13T14:09:02.155Z,17.84
2018-06-13T14:11:31.288Z,17.96
2018-06-13T14:14:00.389Z,18.14
2018-06-13T14:16:29.494Z,18.29
2018-06-13T14:18:58.686Z,18.66
2018-06-13T14:21:27.853Z,18.68
2018-06-13T14:23:56.942Z,18.81
2018-06-13T14:26:26.177Z,19.11
2018-06-13T14:28:55.485Z,19.28
2018-06-13T14:31:26.621Z,19.52
2018-06-13T14:33:55.709Z,19.85
2018-06-13T14:36:24.805Z,19.65
2018-06-13T14:38:53.929Z,19.30
2018-06-13T14:41:23.021Z,18.77
2018-06-13T14:43:52.121Z,18.82
2018-06-13T14:46:21.253Z,19.05
2018-06-13T14:48:50.349Z,18.93
2018-06-13T14:51:19.473Z,18.61
2018-06-13T14:53:51.505Z,18.69
2018-06-13T14:56:26.051Z,18.82
2018-06-13T14:58:55.241Z,18.81
2018-06-13T15:01:24.437Z,18.53
2018-06-13T15:03:53.550Z,18.51
2018-06-13T15:06:23.061Z,18.58
2018-06-13T15:08:52.221Z,18.81
2018-06-13T15:11:21.333Z,18.67
2018-06-13T15:13:50.494Z,18.70
2018-06-13T15:16:19.608Z,18.74
2018-06-13T15:18:49.522Z,18.92
2018-06-13T15:21:18.613Z,19.27
2018-06-13T15:23:47.734Z,19.51
2018-06-13T15:26:16.848Z,19.50
2018-06-13T15:28:46.030Z,19.28
2018-06-13T15:31:15.162Z,19.54
2018-06-13T15:33:44.250Z,19.72
2018-06-13T15:36:13.877Z,19.58
2018-06-13T15:38:42.973Z,19.30
2018-06-13T15:41:12.131Z,19.20
2018-06-13T15:43:41.218Z,19.05
2018-06-13T15:46:10.325Z,18.94
2018-06-13T15:48:39.405Z,18.92
2018-06-13T15:51:08.505Z,18.86
2018-06-13T15:53:37.602Z,18.82
2018-06-13T15:56:06.926Z,18.87
2018-06-13T15:58:36.041Z,18.86
2018-06-13T16:01:05.188Z,18.95
2018-06-13T16:03:34.282Z,18.80
2018-06-13T16:06:03.454Z,18.67
2018-06-13T16:08:32.550Z,18.64
2018-06-13T16:11:01.691Z,18.68
2018-06-13T16:13:30.757Z,18.70
2018-06-13T16:15:59.885Z,18.76
2018-06-13T16:18:29.014Z,18.69
2018-06-13T16:20:58.134Z,18.65
2018-06-13T16:23:27.358Z,18.65
2018-06-13T16:25:57.465Z,18.57
2018-06-13T16:28:26.566Z,18.54
2018-06-13T16:30:55.653Z,18.46
2018-06-13T16:33:24.961Z,18.45
2018-06-13T16:35:54.109Z,18.60
2018-06-13T16:38:23.170Z,18.58
2018-06-13T16:40:52.346Z,18.62
2018-06-13T16:43:21.427Z,18.47
2018-06-13T16:45:50.558Z,18.70
2018-06-13T16:48:19.673Z,18.74
2018-06-13T16:50:59.906Z,18.56
2018-06-13T16:53:53.130Z,18.47
2018-06-13T16:56:23.356Z,18.41
2018-06-13T16:58:52.544Z,18.57
2018-06-13T17:01:22.304Z,18.60
2018-06-13T17:03:52.238Z,18.52
2018-06-13T17:06:21.337Z,18.53
2018-06-13T17:08:50.437Z,18.53
2018-06-13T17:11:19.771Z,18.60
2018-06-13T17:13:48.871Z,18.76
2018-06-13T17:16:17.980Z,18.87
2018-06-13T17:18:47.617Z,18.73
2018-06-13T17:21:16.722Z,18.84
2018-06-13T17:23:45.869Z,18.93
2018-06-13T17:26:14.985Z,18.79
2018-06-13T17:28:44.072Z,18.93
2018-06-13T17:31:13.193Z,18.93
2018-06-13T17:33:42.310Z,18.80
2018-06-13T17:36:11.422Z,18.70
2018-06-13T17:38:40.546Z,18.68
2018-06-13T17:41:09.661Z,18.61
2018-06-13T17:43:38.748Z,18.61
2018-06-13T17:46:07.833Z,18.43
2018-06-13T17:48:36.921Z,18.60
2018-06-13T17:51:06.045Z,18.44
2018-06-13T17:53:35.129Z,18.38
2018-06-13T17:56:04.290Z,18.31
2018-06-13T17:58:33.422Z,18.38
2018-06-13T18:01:02.658Z,18.22
2018-06-13T18:03:31.765Z,18.45
2018-06-13T18:06:00.861Z,18.37
2018-06-13T18:08:29.946Z,18.47
2018-06-13T18:10:59.053Z,18.38
2018-06-13T18:13:28.165Z,18.48
2018-06-13T18:15:57.475Z,18.34
2018-06-13T18:18:26.561Z,18.43
2018-06-13T18:20:55.790Z,18.35
2018-06-13T18:23:25.174Z,18.41
2018-06-13T18:25:54.310Z,18.55
2018-06-13T18:28:23.486Z,18.38
2018-06-13T18:30:52.657Z,18.40
2018-06-13T18:33:21.786Z,18.20
2018-06-13T18:35:50.873Z,18.32
2018-06-13T18:38:20.849Z,18.19
2018-06-13T18:40:49.934Z,18.32
2018-06-13T18:43:23.977Z,18.16
2018-06-13T18:45:53.057Z,18.22
2018-06-13T18:48:22.142Z,18.19
2018-06-13T18:50:51.281Z,18.21
2018-06-13T18:53:21.446Z,18.32
2018-06-13T18:55:50.569Z,18.39
2018-06-13T18:58:19.691Z,18.21
2018-06-13T19:00:48.781Z,18.33
2018-06-13T19:03:17.960Z,18.34
2018-06-13T19:05:47.089Z,18.34
2018-06-13T19:08:16.217Z,18.33
2018-06-13T19:10:45.341Z,18.21
2018-06-13T19:13:14.453Z,18.18
2018-06-13T19:15:43.589Z,18.13
2018-06-13T19:18:12.973Z,18.19
2018-06-13T19:20:42.100Z,18.05
2018-06-13T19:23:11.225Z,18.06
2018-06-13T19:25:40.397Z,17.96
2018-06-13T19:28:09.649Z,17.78
2018-06-13T19:30:38.753Z,17.77
2018-06-13T19:33:07.847Z,17.70
2018-06-13T19:35:36.950Z,17.69
2018-06-13T19:38:06.055Z,17.68
2018-06-13T19:40:35.254Z,17.43
2018-06-13T19:43:08.516Z,17.45
2018-06-13T19:45:37.605Z,17.31
2018-06-13T19:48:12.090Z,17.36
2018-06-13T19:50:41.205Z,17.43
2018-06-13T19:53:15.623Z,17.30
2018-06-13T19:55:49.929Z,17.38
2018-06-13T19:58:22.102Z,17.14
2018-06-13T20:00:51.216Z,17.09
2018-06-13T20:03:25.429Z,17.18
2018-06-13T20:05:54.533Z,17.11
2018-06-13T20:08:23.614Z,17.12
2018-06-13T20:10:53.378Z,16.93
2018-06-13T20:13:27.888Z,16.73
2018-06-13T20:16:02.465Z,16.78
2018-06-13T20:18:36.924Z,16.61
2018-06-13T20:21:06.249Z,16.60
2018-06-13T20:23:35.360Z,16.39
2018-06-13T20:26:09.681Z,16.23
2018-06-13T20:29:42.757Z,16.35
2018-06-13T20:32:11.861Z,15.91
2018-06-13T20:34:40.956Z,16.11
2018-06-13T20:37:10.073Z,16.21
2018-06-13T20:39:39.184Z,15.99
2018-06-13T20:42:08.255Z,16.01
2018-06-13T20:44:37.417Z,15.78
2018-06-13T20:47:06.557Z,15.74
2018-06-13T20:49:35.649Z,15.86
2018-06-13T20:52:04.851Z,15.52
2018-06-13T20:54:34.048Z,15.68
2018-06-13T20:57:03.268Z,15.53
2018-06-13T20:59:32.341Z,15.43
2018-06-13T21:02:01.429Z,15.52
2018-06-13T21:04:30.569Z,15.47
2018-06-13T21:07:00.769Z,15.56
2018-06-13T21:09:29.857Z,15.64
2018-06-13T21:12:00.090Z,15.47
2018-06-13T21:14:29.263Z,15.31
2018-06-13T21:16:58.387Z,15.47
2018-06-13T21:19:27.478Z,15.22
2018-06-13T21:21:56.590Z,15.30
2018-06-13T21:24:25.686Z,15.04
2018-06-13T21:26:54.772Z,15.15
2018-06-13T21:29:23.856Z,14.98
2018-06-13T21:31:52.942Z,14.77
2018-06-13T21:34:22.089Z,15.07
2018-06-13T21:36:51.258Z,14.79
2018-06-13T21:39:20.345Z,14.55
2018-06-13T21:41:50.122Z,14.93
2018-06-13T21:44:19.349Z,14.60
2018-06-13T21:46:48.469Z,14.40
2018-06-13T21:49:17.550Z,14.45
2018-06-13T21:51:46.719Z,14.59
2018-06-13T21:54:15.806Z,14.65
2018-06-13T21:56:44.941Z,14.63
2018-06-13T21:59:14.069Z,14.76
2018-06-13T22:01:43.150Z,14.71
2018-06-13T22:04:12.236Z,14.33
2018-06-13T22:06:41.321Z,14.49
2018-06-13T22:09:11.549Z,14.51
2018-06-13T22:11:45.830Z,14.27
2018-06-13T22:14:14.913Z,14.28
2018-06-13T22:16:44.042Z,14.45
2018-06-13T22:19:13.144Z,14.54
2018-06-13T22:21:42.401Z,14.54
2018-06-13T22:24:12.034Z,14.43
2018-06-13T22:26:41.133Z,14.42
2018-06-13T22:29:10.286Z,14.20
2018-06-13T22:31:39.446Z,14.34
2018-06-13T22:34:08.701Z,14.21
2018-06-13T22:36:37.822Z,14.17
2018-06-13T22:39:08.966Z,14.33
2018-06-13T22:41:38.097Z,14.30
2018-06-13T22:44:07.208Z,14.29
2018-06-13T22:46:36.327Z,14.04
2018-06-13T22:49:05.406Z,14.12
2018-06-13T22:51:34.517Z,14.01
2018-06-13T22:54:03.665Z,14.03
2018-06-13T22:56:32.798Z,13.96
2018-06-13T22:59:01.887Z,14.11
2018-06-13T23:01:31.071Z,13.97
2018-06-13T23:04:00.161Z,14.07
2018-06-13T23:06:29.277Z,14.08
2018-06-13T23:08:58.366Z,14.11
2018-06-13T23:11:27.453Z,13.98
2018-06-13T23:13:56.562Z,13.87
2018-06-13T23:16:25.649Z,13.90
2018-06-13T23:18:54.767Z,13.87
2018-06-13T23:21:23.871Z,13.74
2018-06-13T23:23:52.986Z,13.82
2018-06-13T23:26:23.070Z,13.77
2018-06-13T23:28:52.173Z,13.85
2018-06-13T23:31:21.753Z,13.77
2018-06-13T23:33:50.862Z,13.73
2018-06-13T23:36:20.030Z,13.78
2018-06-13T23:38:49.389Z,13.66
2018-06-13T23:41:18.506Z,13.65
2018-06-13T23:43:47.609Z,13.71
2018-06-13T23:46:16.754Z,13.45
2018-06-13T23:48:45.869Z,13.47
2018-06-13T23:51:14.982Z,13.50
2018-06-13T23:53:44.061Z,13.55
2018-06-13T23:56:13.279Z,13.49
2018-06-13T23:58:42.377Z,13.55
